createdAt,value
2018-05-11T00:00:07.248Z,25.30
2018-05-11T00:02:34.724Z,25.30
2018-05-11T00:05:02.171Z,25.30
2018-05-11T00:07:29.724Z,25.30
2018-05-11T00:09:57.274Z,25.20
2018-05-11T00:12:24.735Z,25.20
2018-05-11T00:14:52.186Z,25.30
2018-05-11T00:17:19.635Z,25.30
2018-05-11T00:19:47.079Z,25.30
2018-05-11T00:22:14.828Z,25.30
2018-05-11T00:24:42.287Z,25.30
2018-05-11T00:27:09.748Z,25.30
2018-05-11T00:29:37.191Z,25.30
2018-05-11T00:32:04.679Z,25.30
2018-05-11T00:34:32.120Z,25.30
2018-05-11T00:36:59.579Z,25.20
2018-05-11T00:39:27.104Z,25.30
2018-05-11T00:41:54.599Z,25.30
2018-05-11T00:44:22.161Z,25.20
2018-05-11T00:46:49.719Z,25.20
2018-05-11T00:49:17.188Z,25.30
2018-05-11T00:51:44.739Z,25.30
2018-05-11T00:54:12.200Z,25.30
2018-05-11T00:56:39.695Z,25.20
2018-05-11T00:59:07.142Z,25.20
2018-05-11T01:01:35.369Z,25.20
2018-05-11T01:04:02.829Z,25.20
2018-05-11T01:06:30.283Z,25.20
2018-05-11T01:08:57.738Z,25.20
2018-05-11T01:11:25.180Z,25.20
2018-05-11T01:13:52.672Z,25.20
2018-05-11T01:16:20.212Z,25.20
2018-05-11T01:18:47.766Z,25.20
2018-05-11T01:21:15.211Z,25.20
2018-05-11T01:23:42.667Z,25.20
2018-05-11T01:26:10.113Z,25.20
2018-05-11T01:28:37.567Z,25.20
2018-05-11T01:31:05.032Z,25.20
2018-05-11T01:33:32.499Z,25.20
2018-05-11T01:35:59.955Z,25.20
2018-05-11T01:38:27.418Z,25.20
2018-05-11T01:40:54.859Z,25.20
2018-05-11T01:43:22.316Z,25.20
2018-05-11T01:45:49.762Z,25.20
2018-05-11T01:48:17.244Z,25.20
2018-05-11T01:50:44.763Z,25.20
2018-05-11T01:53:12.240Z,25.20
2018-05-11T01:55:39.696Z,25.20
2018-05-11T01:58:07.156Z,25.20
2018-05-11T02:00:34.616Z,25.20
2018-05-11T02:03:02.180Z,25.20
2018-05-11T02:05:29.736Z,25.20
2018-05-11T02:07:57.200Z,25.20
2018-05-11T02:10:24.736Z,25.20
2018-05-11T02:12:52.274Z,25.20
2018-05-11T02:15:19.728Z,25.20
2018-05-11T02:17:47.219Z,25.20
2018-05-11T02:20:14.667Z,25.20
2018-05-11T02:22:42.139Z,25.20
2018-05-11T02:25:09.635Z,25.20
2018-05-11T02:27:37.090Z,25.10
2018-05-11T02:30:05.336Z,25.20
2018-05-11T02:32:33.566Z,25.10
2018-05-11T02:35:01.023Z,25.10
2018-05-11T02:37:28.506Z,25.20
2018-05-11T02:39:56.071Z,25.10
2018-05-11T02:42:23.523Z,25.10
2018-05-11T02:44:51.092Z,25.10
2018-05-11T02:47:18.636Z,25.20
2018-05-11T02:49:46.195Z,25.10
2018-05-11T02:52:13.757Z,25.10
2018-05-11T02:54:41.323Z,25.10
2018-05-11T02:57:08.934Z,25.10
2018-05-11T02:59:37.248Z,25.10
2018-05-11T03:02:04.702Z,25.10
2018-05-11T03:04:32.173Z,25.10
2018-05-11T03:06:59.634Z,25.10
2018-05-11T03:09:27.183Z,25.10
2018-05-11T03:11:54.619Z,25.10
2018-05-11T03:14:22.071Z,25.10
2018-05-11T03:16:49.610Z,25.10
2018-05-11T03:19:17.061Z,25.10
2018-05-11T03:21:44.551Z,25.10
2018-05-11T03:24:12.007Z,25.10
2018-05-11T03:26:39.454Z,25.10
2018-05-11T03:29:07.008Z,25.10
2018-05-11T03:31:34.452Z,25.10
2018-05-11T03:34:02.000Z,25.10
2018-05-11T03:36:29.491Z,25.10
2018-05-11T03:38:57.043Z,25.10
2018-05-11T03:41:24.527Z,25.10
2018-05-11T03:43:52.848Z,25.10
2018-05-11T03:46:20.279Z,25.10
2018-05-11T03:48:47.735Z,25.10
2018-05-11T03:51:15.183Z,25.10
2018-05-11T03:53:43.411Z,25.10
2018-05-11T03:56:10.871Z,25.10
2018-05-11T03:58:38.327Z,25.10
2018-05-11T04:01:17.726Z,25.10
2018-05-11T04:03:57.214Z,25.10
2018-05-11T04:06:36.531Z,25.10
2018-05-11T04:09:03.990Z,25.10
2018-05-11T04:11:31.551Z,25.10
2018-05-11T04:13:59.110Z,25.10
2018-05-11T04:16:27.387Z,25.10
2018-05-11T04:18:54.847Z,25.10
2018-05-11T04:21:22.395Z,25.10
2018-05-11T04:23:49.955Z,25.10
2018-05-11T04:26:17.413Z,25.10
2018-05-11T04:28:44.868Z,25.10
2018-05-11T04:31:12.432Z,25.10
2018-05-11T04:33:39.995Z,25.10
2018-05-11T04:36:07.446Z,25.10
2018-05-11T04:38:34.892Z,25.10
2018-05-11T04:41:03.387Z,25.10
2018-05-11T04:43:30.836Z,25.10
2018-05-11T04:45:58.294Z,25.10
2018-05-11T04:48:25.861Z,25.10
2018-05-11T04:50:53.473Z,25.10
2018-05-11T04:53:20.923Z,25.00
2018-05-11T04:55:48.374Z,25.00
2018-05-11T04:58:15.836Z,25.00
2018-05-11T05:00:43.281Z,25.00
2018-05-11T05:03:10.792Z,25.10
2018-05-11T05:05:38.353Z,25.10
2018-05-11T05:08:05.973Z,25.10
2018-05-11T05:10:33.434Z,25.10
2018-05-11T05:13:00.871Z,25.10
2018-05-11T05:15:28.362Z,25.10
2018-05-11T05:17:55.826Z,25.10
2018-05-11T05:20:23.383Z,25.10
2018-05-11T05:22:50.951Z,25.10
2018-05-11T05:25:18.532Z,25.10
2018-05-11T05:27:46.770Z,25.10
2018-05-11T05:30:14.223Z,25.10
2018-05-11T05:32:41.699Z,25.10
2018-05-11T05:35:09.248Z,25.10
2018-05-11T05:37:36.699Z,25.10
2018-05-11T05:40:04.147Z,25.10
2018-05-11T05:42:31.611Z,25.10
2018-05-11T05:44:59.168Z,25.10
2018-05-11T05:47:26.627Z,25.10
2018-05-11T05:49:54.188Z,25.10
2018-05-11T05:52:21.631Z,25.10
2018-05-11T05:54:49.091Z,25.10
2018-05-11T05:57:16.538Z,25.10
2018-05-11T05:59:44.007Z,25.10
2018-05-11T06:02:11.455Z,25.10
2018-05-11T06:04:39.015Z,25.10
2018-05-11T06:07:06.478Z,25.20
2018-05-11T06:09:34.044Z,25.10
2018-05-11T06:12:01.595Z,25.10
2018-05-11T06:14:29.155Z,25.20
2018-05-11T06:16:56.714Z,25.20
2018-05-11T06:19:24.161Z,25.20
2018-05-11T06:21:52.729Z,25.10
2018-05-11T06:24:20.215Z,25.20
2018-05-11T06:26:47.759Z,25.10
2018-05-11T06:29:15.211Z,25.20
2018-05-11T06:31:42.782Z,25.20
2018-05-11T06:34:10.227Z,25.10
2018-05-11T06:36:37.792Z,25.20
2018-05-11T06:39:06.168Z,25.20
2018-05-11T06:41:33.619Z,25.20
2018-05-11T06:44:01.063Z,25.20
2018-05-11T06:46:28.531Z,25.20
2018-05-11T06:48:55.983Z,25.20
2018-05-11T06:51:23.543Z,25.20
2018-05-11T06:53:51.023Z,25.20
2018-05-11T06:56:18.473Z,25.20
2018-05-11T06:58:45.919Z,25.20
2018-05-11T07:01:13.474Z,25.20
2018-05-11T07:03:41.060Z,25.20
2018-05-11T07:06:09.278Z,25.30
2018-05-11T07:08:36.719Z,25.30
2018-05-11T07:11:04.215Z,25.30
2018-05-11T07:13:31.663Z,25.30
2018-05-11T07:15:59.121Z,25.30
2018-05-11T07:18:26.571Z,25.30
2018-05-11T07:20:54.023Z,25.20
2018-05-11T07:23:21.471Z,25.20
2018-05-11T07:25:48.985Z,25.20
2018-05-11T07:28:16.396Z,25.20
2018-05-11T07:30:43.855Z,25.20
2018-05-11T07:33:11.327Z,25.20
2018-05-11T07:35:38.875Z,25.20
2018-05-11T07:38:06.345Z,25.20
2018-05-11T07:40:33.904Z,25.20
2018-05-11T07:43:01.446Z,25.20
2018-05-11T07:45:28.999Z,25.20
2018-05-11T07:47:56.571Z,25.20
2018-05-11T07:50:25.741Z,25.20
2018-05-11T07:52:53.183Z,25.20
2018-05-11T07:55:20.667Z,25.20
2018-05-11T07:57:48.503Z,25.20
2018-05-11T08:00:16.063Z,25.30
2018-05-11T08:02:43.546Z,25.30
2018-05-11T08:05:11.004Z,25.30
2018-05-11T08:07:38.567Z,25.30
2018-05-11T08:10:06.124Z,25.30
2018-05-11T08:12:33.588Z,25.30
2018-05-11T08:15:01.032Z,25.30
2018-05-11T08:17:28.491Z,25.20
2018-05-11T08:19:55.935Z,25.30
2018-05-11T08:22:23.394Z,25.30
2018-05-11T08:24:50.839Z,25.30
2018-05-11T08:27:18.308Z,25.30
2018-05-11T08:29:45.836Z,25.30
2018-05-11T08:32:13.279Z,25.30
2018-05-11T08:34:40.727Z,25.30
2018-05-11T08:37:08.187Z,25.30
2018-05-11T08:39:35.635Z,25.30
2018-05-11T08:42:03.095Z,25.30
2018-05-11T08:44:30.599Z,25.30
2018-05-11T08:46:58.154Z,25.30
2018-05-11T08:49:25.602Z,25.30
2018-05-11T08:51:53.064Z,25.30
2018-05-11T08:54:20.532Z,25.30
2018-05-11T08:56:48.088Z,25.30
2018-05-11T08:59:15.535Z,25.30
2018-05-11T09:01:42.991Z,25.30
2018-05-11T09:04:10.435Z,25.30
2018-05-11T09:06:37.895Z,25.30
2018-05-11T09:09:05.339Z,25.30
2018-05-11T09:11:32.819Z,25.30
2018-05-11T09:14:00.267Z,25.30
2018-05-11T09:16:27.732Z,25.30
2018-05-11T09:18:55.202Z,25.30
2018-05-11T09:21:22.701Z,25.30
2018-05-11T09:23:50.099Z,25.30
2018-05-11T09:26:17.554Z,25.30
2018-05-11T09:28:45.003Z,25.40
2018-05-11T09:31:12.575Z,25.40
2018-05-11T09:33:40.024Z,25.40
2018-05-11T09:36:07.483Z,25.40
2018-05-11T09:38:34.947Z,25.40
2018-05-11T09:41:02.400Z,25.40
2018-05-11T09:43:29.951Z,25.40
2018-05-11T09:45:57.411Z,25.40
2018-05-11T09:48:24.963Z,25.40
2018-05-11T09:50:52.522Z,25.40
2018-05-11T09:53:19.979Z,25.40
2018-05-11T09:55:47.538Z,25.40
2018-05-11T09:58:14.995Z,25.40
2018-05-11T10:00:42.593Z,25.40
2018-05-11T10:03:10.107Z,25.40
2018-05-11T10:05:37.667Z,25.30
2018-05-11T10:08:05.227Z,25.30
2018-05-11T10:10:32.672Z,25.30
2018-05-11T10:13:00.128Z,25.30
2018-05-11T10:15:27.582Z,25.30
2018-05-11T10:17:55.040Z,25.30
2018-05-11T10:20:22.502Z,25.30
2018-05-11T10:22:49.977Z,25.40
2018-05-11T10:25:17.425Z,25.40
2018-05-11T10:27:44.979Z,25.40
2018-05-11T10:30:13.964Z,25.40
2018-05-11T10:32:41.416Z,25.40
2018-05-11T10:35:08.867Z,25.40
2018-05-11T10:37:36.313Z,25.40
2018-05-11T10:40:03.759Z,25.40
2018-05-11T10:42:31.234Z,25.40
2018-05-11T10:44:58.675Z,25.40
2018-05-11T10:47:26.151Z,25.50
2018-05-11T10:49:53.607Z,25.50
2018-05-11T10:52:21.164Z,25.50
2018-05-11T10:54:48.611Z,25.50
2018-05-11T10:57:16.068Z,25.50
2018-05-11T10:59:43.539Z,25.50
2018-05-11T11:02:10.995Z,25.50
2018-05-11T11:04:38.559Z,25.50
2018-05-11T11:07:06.003Z,25.50
2018-05-11T11:09:33.451Z,25.50
2018-05-11T11:12:01.028Z,25.50
2018-05-11T11:14:28.478Z,25.50
2018-05-11T11:16:55.927Z,25.50
2018-05-11T11:19:23.501Z,25.50
2018-05-11T11:21:51.039Z,25.50
2018-05-11T11:24:18.607Z,25.50
2018-05-11T11:26:46.056Z,25.50
2018-05-11T11:29:13.511Z,25.50
2018-05-11T11:31:40.975Z,25.50
2018-05-11T11:34:08.426Z,25.50
2018-05-11T11:36:36.019Z,25.50
2018-05-11T11:39:04.259Z,25.50
2018-05-11T11:41:31.819Z,25.50
2018-05-11T11:43:59.278Z,25.50
2018-05-11T11:46:26.731Z,25.50
2018-05-11T11:48:54.193Z,25.50
2018-05-11T11:51:22.403Z,25.50
2018-05-11T11:53:49.859Z,25.50
2018-05-11T11:56:17.313Z,25.50
2018-05-11T11:58:45.559Z,25.50
2018-05-11T12:01:13.099Z,25.50
2018-05-11T12:03:40.551Z,25.50
2018-05-11T12:06:08.008Z,25.50
2018-05-11T12:08:35.463Z,25.50
2018-05-11T12:11:02.911Z,25.50
2018-05-11T12:13:30.372Z,25.50
2018-05-11T12:15:57.819Z,25.50
2018-05-11T12:18:25.293Z,25.50
2018-05-11T12:20:52.843Z,25.50
2018-05-11T12:23:20.304Z,25.50
2018-05-11T12:25:47.859Z,25.50
2018-05-11T12:28:15.420Z,25.50
2018-05-11T12:30:42.860Z,25.50
2018-05-11T12:33:10.310Z,25.50
2018-05-11T12:35:37.759Z,25.50
2018-05-11T12:38:05.219Z,25.50
2018-05-11T12:40:32.691Z,25.50
2018-05-11T12:43:00.263Z,25.50
2018-05-11T12:45:27.817Z,25.50
2018-05-11T12:47:55.275Z,25.60
2018-05-11T12:50:22.823Z,25.60
2018-05-11T12:52:50.390Z,25.60
2018-05-11T12:55:17.831Z,25.60
2018-05-11T12:57:45.375Z,25.60
2018-05-11T13:00:12.851Z,25.60
2018-05-11T13:02:41.023Z,25.60
2018-05-11T13:05:08.587Z,25.60
2018-05-11T13:07:36.150Z,25.60
2018-05-11T13:10:03.615Z,25.60
2018-05-11T13:12:31.055Z,25.70
2018-05-11T13:14:58.611Z,25.70
2018-05-11T13:17:26.058Z,25.70
2018-05-11T13:19:53.511Z,25.70
2018-05-11T13:22:20.979Z,25.70
2018-05-11T13:24:48.507Z,25.70
2018-05-11T13:27:15.958Z,25.70
2018-05-11T13:29:43.415Z,25.70
2018-05-11T13:32:10.863Z,25.70
2018-05-11T13:34:38.331Z,25.70
2018-05-11T13:37:05.775Z,25.70
2018-05-11T13:39:33.231Z,25.80
2018-05-11T13:42:00.745Z,25.70
2018-05-11T13:44:28.179Z,25.70
2018-05-11T13:46:55.635Z,25.70
2018-05-11T13:49:23.144Z,25.70
2018-05-11T13:51:50.543Z,25.70
2018-05-11T13:54:18.107Z,25.60
2018-05-11T13:56:45.563Z,25.60
2018-05-11T13:59:13.122Z,25.60
2018-05-11T14:01:40.567Z,25.60
2018-05-11T14:04:08.033Z,25.60
2018-05-11T14:06:35.482Z,25.60
2018-05-11T14:09:02.943Z,25.60
2018-05-11T14:11:30.407Z,25.60
2018-05-11T14:13:57.959Z,25.60
2018-05-11T14:16:25.408Z,25.60
2018-05-11T14:18:52.858Z,25.60
2018-05-11T14:21:20.407Z,25.60
2018-05-11T14:23:48.014Z,25.60
2018-05-11T14:26:15.459Z,25.60
2018-05-11T14:28:42.935Z,25.60
2018-05-11T14:31:11.143Z,25.60
2018-05-11T14:33:38.594Z,25.60
2018-05-11T14:36:06.058Z,25.60
2018-05-11T14:38:33.551Z,25.60
2018-05-11T14:41:01.027Z,25.60
2018-05-11T14:43:29.240Z,25.60
2018-05-11T14:45:56.690Z,25.60
2018-05-11T14:48:24.135Z,25.60
2018-05-11T14:50:51.645Z,25.60
2018-05-11T14:53:19.196Z,25.50
2018-05-11T14:55:46.668Z,25.50
2018-05-11T14:58:14.207Z,25.50
2018-05-11T15:00:41.735Z,25.50
2018-05-11T15:03:09.184Z,25.50
2018-05-11T15:05:36.751Z,25.40
2018-05-11T15:08:04.240Z,25.50
2018-05-11T15:10:31.695Z,25.40
2018-05-11T15:12:59.152Z,25.50
2018-05-11T15:15:26.721Z,25.50
2018-05-11T15:17:54.154Z,25.50
2018-05-11T15:20:21.606Z,25.50
2018-05-11T15:22:49.086Z,25.50
2018-05-11T15:25:16.631Z,25.50
2018-05-11T15:27:44.089Z,25.50
2018-05-11T15:30:11.646Z,25.50
2018-05-11T15:32:39.091Z,25.50
2018-05-11T15:35:06.543Z,25.50
2018-05-11T15:37:33.991Z,25.50
2018-05-11T15:40:01.468Z,25.50
2018-05-11T15:42:28.923Z,25.50
2018-05-11T15:44:56.385Z,25.50
2018-05-11T15:47:23.943Z,25.50
2018-05-11T15:49:51.617Z,25.40
2018-05-11T15:52:19.229Z,25.50
2018-05-11T15:54:46.682Z,25.40
2018-05-11T15:57:14.172Z,25.50
2018-05-11T15:59:43.943Z,25.40
2018-05-11T16:02:11.433Z,25.40
2018-05-11T16:04:38.999Z,25.40
2018-05-11T16:07:06.470Z,25.40
2018-05-11T16:09:35.446Z,25.40
2018-05-11T16:12:02.891Z,25.50
2018-05-11T16:14:30.335Z,25.40
2018-05-11T16:16:57.802Z,25.40
2018-05-11T16:19:25.327Z,25.40
2018-05-11T16:21:52.731Z,25.50
2018-05-11T16:24:20.776Z,25.50
2018-05-11T16:26:48.253Z,25.50
2018-05-11T16:29:16.841Z,25.50
2018-05-11T16:31:45.544Z,25.40
2018-05-11T16:34:13.429Z,25.50
2018-05-11T16:36:41.662Z,25.40
2018-05-11T16:39:09.110Z,25.40
2018-05-11T16:41:36.666Z,25.40
2018-05-11T16:44:04.120Z,25.40
2018-05-11T16:46:31.583Z,25.40
2018-05-11T16:48:59.032Z,25.40
2018-05-11T16:51:26.499Z,25.40
2018-05-11T16:53:53.947Z,25.40
2018-05-11T16:56:21.579Z,25.40
2018-05-11T16:58:49.052Z,25.40
2018-05-11T17:01:16.508Z,25.40
2018-05-11T17:03:43.978Z,25.40
2018-05-11T17:06:11.435Z,25.40
2018-05-11T17:08:38.889Z,25.40
2018-05-11T17:11:06.354Z,25.30
2018-05-11T17:13:33.798Z,25.30
2018-05-11T17:16:01.359Z,25.30
2018-05-11T17:18:28.892Z,25.30
2018-05-11T17:20:56.370Z,25.30
2018-05-11T17:23:23.831Z,25.30
2018-05-11T17:25:51.359Z,25.30
2018-05-11T17:28:18.816Z,25.30
2018-05-11T17:30:46.308Z,25.30
2018-05-11T17:33:13.862Z,25.30
2018-05-11T17:35:41.338Z,25.30
2018-05-11T17:38:08.866Z,25.30
2018-05-11T17:40:36.319Z,25.40
2018-05-11T17:43:03.763Z,25.40
2018-05-11T17:45:31.215Z,25.40
2018-05-11T17:47:58.767Z,25.40
2018-05-11T17:50:26.250Z,25.40
2018-05-11T17:52:53.740Z,25.30
2018-05-11T17:55:21.985Z,25.30
2018-05-11T17:57:49.435Z,25.30
2018-05-11T18:00:16.901Z,25.30
2018-05-11T18:02:44.343Z,25.30
2018-05-11T18:05:11.786Z,25.30
2018-05-11T18:07:39.247Z,25.30
2018-05-11T18:10:06.722Z,25.30
2018-05-11T18:12:34.140Z,25.30
2018-05-11T18:15:01.627Z,25.30
2018-05-11T18:17:29.195Z,25.30
2018-05-11T18:19:56.638Z,25.40
2018-05-11T18:22:24.096Z,25.40
2018-05-11T18:24:51.544Z,25.40
2018-05-11T18:27:19.015Z,25.40
2018-05-11T18:29:46.463Z,25.40
2018-05-11T18:32:13.916Z,25.40
2018-05-11T18:34:41.363Z,25.40
2018-05-11T18:37:08.819Z,25.30
2018-05-11T18:39:36.312Z,25.40
2018-05-11T18:42:04.554Z,25.40
2018-05-11T18:44:32.011Z,25.40
2018-05-11T18:46:59.507Z,25.40
2018-05-11T18:49:26.927Z,25.40
2018-05-11T18:51:54.387Z,25.40
2018-05-11T18:54:22.055Z,25.40
2018-05-11T18:56:49.291Z,25.40
2018-05-11T18:59:16.756Z,25.40
2018-05-11T19:01:44.333Z,25.40
2018-05-11T19:04:11.787Z,25.40
2018-05-11T19:06:39.335Z,25.40
2018-05-11T19:09:06.824Z,25.40
2018-05-11T19:11:34.351Z,25.40
2018-05-11T19:14:01.907Z,25.40
2018-05-11T19:16:29.363Z,25.40
2018-05-11T19:18:56.809Z,25.40
2018-05-11T19:21:24.263Z,25.40
2018-05-11T19:23:51.715Z,25.40
2018-05-11T19:26:19.178Z,25.40
2018-05-11T19:28:46.632Z,25.40
2018-05-11T19:31:14.075Z,25.40
2018-05-11T19:33:41.531Z,25.40
2018-05-11T19:36:08.980Z,25.40
2018-05-11T19:38:36.435Z,25.40
2018-05-11T19:41:03.915Z,25.40
2018-05-11T19:43:31.451Z,25.40
2018-05-11T19:45:58.932Z,25.40
2018-05-11T19:48:26.563Z,25.40
2018-05-11T19:50:53.931Z,25.30
2018-05-11T19:53:21.400Z,25.40
2018-05-11T19:55:48.858Z,25.40
2018-05-11T19:58:16.303Z,25.40
2018-05-11T20:00:43.746Z,25.40
2018-05-11T20:03:11.215Z,25.40
2018-05-11T20:05:38.691Z,25.40
2018-05-11T20:08:07.671Z,25.40
2018-05-11T20:10:35.132Z,25.40
2018-05-11T20:13:02.577Z,25.40
2018-05-11T20:15:30.027Z,25.40
2018-05-11T20:17:57.486Z,25.40
2018-05-11T20:20:24.942Z,25.40
2018-05-11T20:22:52.515Z,25.40
2018-05-11T20:25:19.967Z,25.40
2018-05-11T20:27:47.426Z,25.40
2018-05-11T20:30:14.887Z,25.40
2018-05-11T20:32:42.390Z,25.40
2018-05-11T20:35:09.847Z,25.40
2018-05-11T20:37:37.254Z,25.40
2018-05-11T20:40:04.799Z,25.40
2018-05-11T20:42:32.360Z,25.40
2018-05-11T20:44:59.799Z,25.40
2018-05-11T20:47:27.272Z,25.40
2018-05-11T20:49:55.115Z,25.40
2018-05-11T20:52:22.765Z,25.40
2018-05-11T20:54:50.321Z,25.40
2018-05-11T20:57:17.774Z,25.40
2018-05-11T20:59:45.235Z,25.40
2018-05-11T21:02:13.352Z,25.40
2018-05-11T21:04:40.800Z,25.40
2018-05-11T21:07:08.254Z,25.40
2018-05-11T21:09:35.786Z,25.40
2018-05-11T21:12:03.223Z,25.40
2018-05-11T21:14:31.569Z,25.40
2018-05-11T21:16:59.779Z,25.40
2018-05-11T21:19:27.236Z,25.40
2018-05-11T21:21:54.821Z,25.40
2018-05-11T21:24:22.275Z,25.40
2018-05-11T21:26:49.719Z,25.40
2018-05-11T21:29:17.171Z,25.40
2018-05-11T21:31:44.619Z,25.40
2018-05-11T21:34:12.172Z,25.40
2018-05-11T21:36:40.710Z,25.40
2018-05-11T21:39:08.175Z,25.40
2018-05-11T21:41:36.687Z,25.40
2018-05-11T21:44:04.148Z,25.40
2018-05-11T21:46:32.623Z,25.40
2018-05-11T21:49:00.119Z,25.40
2018-05-11T21:51:28.545Z,25.40
2018-05-11T21:53:56.043Z,25.40
2018-05-11T21:56:23.506Z,25.40
2018-05-11T21:58:51.059Z,25.40
2018-05-11T22:01:18.508Z,25.40
2018-05-11T22:03:45.973Z,25.40
2018-05-11T22:06:13.422Z,25.30
2018-05-11T22:08:40.982Z,25.30
2018-05-11T22:11:08.439Z,25.30
2018-05-11T22:13:35.994Z,25.30
2018-05-11T22:16:03.347Z,25.30
2018-05-11T22:18:30.804Z,25.30
2018-05-11T22:20:58.253Z,25.30
2018-05-11T22:23:25.732Z,25.30
2018-05-11T22:25:53.287Z,25.30
2018-05-11T22:28:20.740Z,25.30
2018-05-11T22:30:48.199Z,25.30
2018-05-11T22:33:15.752Z,25.30
2018-05-11T22:35:43.308Z,25.30
2018-05-11T22:38:10.863Z,25.30
2018-05-11T22:40:38.324Z,25.20
2018-05-11T22:43:05.779Z,25.20
2018-05-11T22:45:33.350Z,25.20
2018-05-11T22:48:01.567Z,25.30
2018-05-11T22:50:29.060Z,25.20
2018-05-11T22:52:56.512Z,25.30
2018-05-11T22:55:23.982Z,25.20
2018-05-11T22:57:51.427Z,25.20
2018-05-11T23:00:37.699Z,25.20
2018-05-11T23:03:05.168Z,25.20
2018-05-11T23:05:32.614Z,25.20
2018-05-11T23:08:00.060Z,25.20
2018-05-11T23:10:27.515Z,25.20
2018-05-11T23:12:55.031Z,25.20
2018-05-11T23:15:23.275Z,25.20
2018-05-11T23:17:50.764Z,25.20
2018-05-11T23:20:18.291Z,25.20
2018-05-11T23:22:45.751Z,25.20
2018-05-11T23:25:13.303Z,25.20
2018-05-11T23:27:40.844Z,25.20
2018-05-11T23:30:08.322Z,25.20
2018-05-11T23:32:35.779Z,25.20
2018-05-11T23:35:03.503Z,25.20
2018-05-11T23:37:30.965Z,25.20
2018-05-11T23:39:58.452Z,25.20
2018-05-11T23:42:25.894Z,25.20
2018-05-11T23:44:53.360Z,25.20
2018-05-11T23:47:22.048Z,25.20
2018-05-11T23:49:49.551Z,25.20
2018-05-11T23:52:16.959Z,25.20
2018-05-11T23:54:44.410Z,25.20
2018-05-11T23:57:11.869Z,25.20
2018-05-11T23:59:39.335Z,25.20
